This is the latest recevied weather packets stored in our database for station/object SP3WRO-2. If no packets are shown the sender has not sent any weather packets the latest 10 day(s).
| Time | Temp. | Humidity | Pressure | Rain* | Wind** | Luminosity | Snow |
|---|---|---|---|---|---|---|---|
| 1787832758 | 24.44° C | 43% | 1017.3 hPa | - | - | 629 W/m² | - |
| 1787831857 | 24.44° C | 42% | 1017.5 hPa | - | - | 638 W/m² | - |
| 1787830956 | 24.44° C | 43% | 1017.8 hPa | - | - | 655 W/m² | - |
| 1787830055 | 24.44° C | 42% | 1018.1 hPa | - | - | 668 W/m² | - |
| 1787829154 | 24.44° C | 44% | 1018.1 hPa | - | - | 681 W/m² | - |
| 1787828253 | 23.89° C | 47% | 1018.3 hPa | - | - | 687 W/m² | - |
| 1787827352 | 23.89° C | 47% | 1018.4 hPa | - | - | 680 W/m² | - |
| 1787826452 | 23.89° C | 46% | 1018.5 hPa | - | - | 678 W/m² | - |
| 1787825550 | 23.33° C | 47% | 1018.6 hPa | - | - | 667 W/m² | - |
| 1787824650 | 23.33° C | 50% | 1018.7 hPa | - | - | 659 W/m² | - |
| 1787823748 | 23.33° C | 51% | 1018.9 hPa | - | - | 645 W/m² | - |
| 1787822848 | 22.78° C | 51% | 1018.9 hPa | - | - | 617 W/m² | - |
| 1787821946 | 22.22° C | 52% | 1019.1 hPa | - | - | 597 W/m² | - |
| 1787821045 | 22.78° C | 55% | 1019.2 hPa | - | - | 582 W/m² | - |
| 1787820144 | 22.22° C | 56% | 1019.3 hPa | - | - | 551 W/m² | - |
| 1787819243 | 21.67° C | 57% | 1019.5 hPa | - | - | 526 W/m² | - |
| 1787818342 | 20.56° C | 61% | 1019.5 hPa | - | - | 499 W/m² | - |
| 1787817440 | 20.56° C | 60% | 1019.5 hPa | - | - | 466 W/m² | - |
| 1787816539 | 19.44° C | 63% | 1019.5 hPa | - | - | 427 W/m² | - |
| 1787815638 | 19.44° C | 64% | 1019.5 hPa | - | - | 386 W/m² | - |
| 1787814737 | 18.33° C | 67% | 1019.6 hPa | - | - | 341 W/m² | - |
| 1787813836 | 18.33° C | 67% | 1019.5 hPa | - | - | 300 W/m² | - |
| 1787812935 | 17.22° C | 72% | 1019.6 hPa | - | - | 259 W/m² | - |
| 1787812034 | 17.22° C | 74% | 1019.5 hPa | - | - | 217 W/m² | - |
| 1787811133 | 16.11° C | 73% | 1019.6 hPa | - | - | 178 W/m² | - |
* Rain since midnight (hover to see other rain measurements)
** Current wind speed in m/s (hover to see current wind gust speed)